Time;durP1;ratioP1;P1;durP2;ratioP2;P2;SDS_P1;SDS_P2;PMS_P1;PMS_P2;Temp;Humidity;BMP_temperature;BMP_pressure;BME280_temperature;BME280_humidity;BME280_pressure;Samples;Min_cycle;Max_cycle;Signal;HPM_P1;HPM_P2
2022/03/30 00:00:31;;;;;;;;;;;8.90;99.90;;;;;;5165784;27;19931;-63
2022/03/30 00:02:57;;;;;;;;;;;8.90;99.90;;;;;;5165442;27;19896;-64
2022/03/30 00:05:23;;;;;;;;;;;9.00;99.90;;;;;;5162731;27;19953;-62
2022/03/30 00:07:52;;;;;;;;;;;8.90;99.90;;;;;;5168721;27;19921;-62
2022/03/30 00:10:17;;;;;;;;;;;9.00;99.90;;;;;;5158655;27;19979;-63
2022/03/30 00:12:43;;;;;;;;;;;8.90;99.90;;;;;;5147231;27;19922;-63
2022/03/30 00:15:08;;;;;;;;;;;8.90;99.90;;;;;;5159797;27;19941;-62
2022/03/30 00:17:34;;;;;;;;;;;8.90;99.90;;;;;;5147320;27;19938;-66
2022/03/30 00:20:00;;;;;;;;;;;8.90;99.90;;;;;;5161849;27;19906;-62
2022/03/30 00:22:26;;;;;;;;;;;8.90;99.90;;;;;;5159843;27;19935;-63
2022/03/30 00:24:52;;;;;;;;;;;9.00;99.90;;;;;;5145809;27;19944;-63
2022/03/30 00:27:17;;;;;;;;;;;9.00;99.90;;;;;;5138520;27;19900;-61
2022/03/30 00:29:44;;;;;;;;;;;8.90;99.90;;;;;;5151263;27;19911;-63
2022/03/30 00:32:10;;;;;;;;;;;9.00;99.90;;;;;;5164075;27;19911;-65
2022/03/30 00:34:36;;;;;;;;;;;9.10;99.90;;;;;;5166928;27;19927;-63
2022/03/30 00:37:02;;;;;;;;;;;9.10;99.90;;;;;;5160324;27;19910;-63
2022/03/30 00:39:27;;;;;;;;;;;9.10;99.90;;;;;;5167019;27;19921;-63
2022/03/30 00:41:53;;;;;;;;;;;9.10;99.90;;;;;;5164974;27;19903;-62
2022/03/30 00:44:18;;;;;;;;;;;9.10;99.90;;;;;;5170197;27;19900;-62
2022/03/30 00:46:44;;;;;;;;;;;9.10;99.90;;;;;;5147687;27;19920;-63
2022/03/30 00:49:10;;;;;;;;;;;9.10;99.90;;;;;;5168327;27;19914;-62
2022/03/30 00:51:39;;;;;;;;;;;9.10;99.90;;;;;;5175904;27;19942;-63
2022/03/30 00:54:05;;;;;;;;;;;9.20;99.90;;;;;;5154544;27;20132;-61
2022/03/30 00:56:32;;;;;;;;;;;9.20;99.90;;;;;;5171502;27;20177;-62
2022/03/30 00:58:58;;;;;;;;;;;9.00;99.90;;;;;;5169149;27;20067;-62
2022/03/30 01:01:24;;;;;;;;;;;8.90;99.90;;;;;;5172972;27;20100;-61
2022/03/30 01:03:50;;;;;;;;;;;8.90;99.90;;;;;;5170790;27;19919;-62
2022/03/30 01:06:16;;;;;;;;;;;8.90;99.90;;;;;;5169315;27;19921;-62
2022/03/30 01:08:42;;;;;;;;;;;8.90;99.90;;;;;;5162379;27;19903;-62
2022/03/30 01:11:09;;;;;;;;;;;8.90;99.90;;;;;;5143936;27;19908;-63
2022/03/30 01:13:35;;;;;;;;;;;8.90;99.90;;;;;;5161916;27;19900;-62
2022/03/30 01:16:02;;;;;;;;;;;8.80;99.90;;;;;;5172529;27;19904;-62
2022/03/30 01:18:28;;;;;;;;;;;8.80;99.90;;;;;;5146540;27;19912;-64
2022/03/30 01:20:53;;;;;;;;;;;8.80;99.90;;;;;;5160451;27;19942;-63
2022/03/30 01:23:19;;;;;;;;;;;8.60;99.90;;;;;;5165563;27;19907;-63
2022/03/30 01:25:44;;;;;;;;;;;8.50;99.90;;;;;;5163781;27;19900;-65
2022/03/30 01:28:11;;;;;;;;;;;8.40;99.90;;;;;;5146414;27;19926;-63
2022/03/30 01:33:21;;;;;;;;;;;8.50;99.90;;;;;;5162829;27;19928;-63
2022/03/30 01:35:46;;;;;;;;;;;8.40;99.90;;;;;;5142086;27;19903;-62
2022/03/30 01:38:12;;;;;;;;;;;8.40;99.90;;;;;;5163867;27;19900;-62
2022/03/30 01:40:38;;;;;;;;;;;8.60;99.90;;;;;;5159554;27;19970;-64
2022/03/30 01:43:03;;;;;;;;;;;8.60;99.90;;;;;;5147086;27;19941;-62
2022/03/30 01:45:29;;;;;;;;;;;8.60;99.90;;;;;;5161856;27;19911;-68
2022/03/30 01:47:57;;;;;;;;;;;8.60;99.90;;;;;;5165185;27;19963;-68
2022/03/30 01:50:22;;;;;;;;;;;8.60;99.90;;;;;;5159760;27;20200;-62
2022/03/30 01:52:48;;;;;;;;;;;8.60;99.90;;;;;;5162534;27;20008;-62
2022/03/30 01:55:14;;;;;;;;;;;8.60;99.90;;;;;;5162500;27;19908;-64
2022/03/30 01:57:40;;;;;;;;;;;8.60;99.90;;;;;;5164556;27;19900;-68
2022/03/30 02:00:06;;;;;;;;;;;8.60;99.90;;;;;;5160085;27;19958;-63
2022/03/30 02:02:32;;;;;;;;;;;8.70;99.90;;;;;;5165207;27;19903;-62
2022/03/30 02:04:58;;;;;;;;;;;8.70;99.90;;;;;;5164382;27;19900;-62
2022/03/30 02:07:23;;;;;;;;;;;8.70;99.90;;;;;;5164776;27;19900;-62
2022/03/30 02:09:49;;;;;;;;;;;8.60;99.90;;;;;;5146683;27;19926;-67
2022/03/30 02:12:14;;;;;;;;;;;8.60;99.90;;;;;;5165360;27;19922;-62
2022/03/30 02:14:41;;;;;;;;;;;8.60;99.90;;;;;;5169768;27;19900;-64
2022/03/30 02:17:07;;;;;;;;;;;8.60;99.90;;;;;;5163695;27;19900;-63
2022/03/30 02:19:32;;;;;;;;;;;8.60;99.90;;;;;;5158682;27;19910;-62
2022/03/30 02:21:58;;;;;;;;;;;8.60;99.90;;;;;;5172982;27;19930;-64
2022/03/30 02:24:24;;;;;;;;;;;8.40;99.90;;;;;;5156906;27;20253;-67
2022/03/30 02:26:50;;;;;;;;;;;8.50;99.90;;;;;;5158833;27;19903;-62
2022/03/30 02:29:16;;;;;;;;;;;8.40;99.90;;;;;;5160665;27;20123;-62
2022/03/30 02:31:42;;;;;;;;;;;8.50;99.90;;;;;;5161973;27;19911;-61
2022/03/30 02:34:09;;;;;;;;;;;8.50;99.90;;;;;;5169663;27;19930;-62
2022/03/30 02:36:34;;;;;;;;;;;8.50;99.90;;;;;;5165964;27;20002;-62
2022/03/30 02:39:00;;;;;;;;;;;8.50;99.90;;;;;;5173327;27;19904;-63
2022/03/30 02:41:26;;;;;;;;;;;8.60;99.90;;;;;;5143197;27;19966;-63
2022/03/30 02:43:52;;;;;;;;;;;8.60;99.90;;;;;;5158216;27;19942;-62
2022/03/30 02:46:17;;;;;;;;;;;8.60;99.90;;;;;;5141937;27;19915;-62
2022/03/30 02:48:43;;;;;;;;;;;8.60;99.90;;;;;;5164017;27;19963;-63
2022/03/30 02:51:09;;;;;;;;;;;8.60;99.90;;;;;;5170212;27;19931;-63
2022/03/30 02:53:35;;;;;;;;;;;8.50;99.90;;;;;;5140242;27;19919;-62
2022/03/30 02:56:01;;;;;;;;;;;8.60;99.90;;;;;;5161836;27;19911;-62
2022/03/30 02:58:27;;;;;;;;;;;8.60;99.90;;;;;;5168282;27;19899;-62
2022/03/30 03:00:54;;;;;;;;;;;8.60;99.90;;;;;;5159239;27;19928;-62
2022/03/30 03:03:23;;;;;;;;;;;8.60;99.90;;;;;;5162416;27;19958;-61
2022/03/30 03:05:48;;;;;;;;;;;8.50;99.90;;;;;;5166787;27;19899;-62
2022/03/30 03:08:14;;;;;;;;;;;8.40;99.90;;;;;;5162817;27;20033;-64
2022/03/30 03:10:41;;;;;;;;;;;8.50;99.90;;;;;;5164962;27;19992;-62
2022/03/30 03:13:09;;;;;;;;;;;8.50;99.90;;;;;;5166438;27;19904;-62
2022/03/30 03:15:35;;;;;;;;;;;8.60;99.90;;;;;;5172495;27;19903;-65
2022/03/30 03:18:01;;;;;;;;;;;8.60;99.90;;;;;;5169331;27;20121;-61
2022/03/30 03:20:27;;;;;;;;;;;8.50;99.90;;;;;;5157568;27;19904;-63
2022/03/30 03:22:54;;;;;;;;;;;8.40;99.90;;;;;;5164603;27;19958;-66
2022/03/30 03:25:19;;;;;;;;;;;8.50;99.90;;;;;;5138999;27;20171;-61
2022/03/30 03:27:45;;;;;;;;;;;8.50;99.90;;;;;;5144489;27;19903;-62
2022/03/30 03:30:11;;;;;;;;;;;8.40;99.90;;;;;;5165323;27;19903;-63
2022/03/30 03:32:36;;;;;;;;;;;8.40;99.90;;;;;;5159157;27;19919;-62
2022/03/30 03:35:03;;;;;;;;;;;8.50;99.90;;;;;;5152511;27;19925;-63
2022/03/30 03:37:28;;;;;;;;;;;8.40;99.90;;;;;;5140618;28;19904;-62
2022/03/30 03:39:54;;;;;;;;;;;8.40;99.90;;;;;;5161219;27;19910;-61
2022/03/30 03:42:21;;;;;;;;;;;8.40;99.90;;;;;;5149787;27;19933;-62
2022/03/30 03:44:46;;;;;;;;;;;8.40;99.90;;;;;;5147134;28;19899;-63
2022/03/30 03:47:12;;;;;;;;;;;8.40;99.90;;;;;;5168973;27;19938;-62
2022/03/30 03:49:38;;;;;;;;;;;8.50;99.90;;;;;;5160984;27;19906;-63
2022/03/30 03:52:04;;;;;;;;;;;8.60;99.90;;;;;;5160236;27;19911;-69
2022/03/30 03:54:30;;;;;;;;;;;8.40;99.90;;;;;;5159323;27;19911;-63
2022/03/30 03:56:56;;;;;;;;;;;8.50;99.90;;;;;;5159473;27;19971;-63
2022/03/30 03:59:21;;;;;;;;;;;8.40;99.90;;;;;;5166769;27;19903;-61
2022/03/30 04:01:47;;;;;;;;;;;8.40;99.90;;;;;;5163843;27;19899;-63
2022/03/30 04:04:12;;;;;;;;;;;8.40;99.90;;;;;;5165334;27;20063;-62
2022/03/30 04:06:38;;;;;;;;;;;8.40;99.90;;;;;;5166115;27;19911;-64
2022/03/30 04:09:03;;;;;;;;;;;8.50;99.90;;;;;;5161990;27;19947;-62
2022/03/30 04:11:29;;;;;;;;;;;8.50;99.90;;;;;;5164620;27;19908;-61
2022/03/30 04:13:55;;;;;;;;;;;8.40;99.90;;;;;;5164705;27;19911;-63
2022/03/30 04:16:21;;;;;;;;;;;8.30;99.90;;;;;;5161520;27;19921;-62
2022/03/30 04:18:46;;;;;;;;;;;8.20;99.90;;;;;;5162298;27;19947;-61
2022/03/30 04:21:12;;;;;;;;;;;8.20;99.90;;;;;;5173714;27;20280;-67
2022/03/30 04:23:37;;;;;;;;;;;8.20;99.90;;;;;;5161524;27;19911;-62
2022/03/30 04:26:03;;;;;;;;;;;8.30;99.90;;;;;;5164474;27;19916;-61
2022/03/30 04:28:29;;;;;;;;;;;8.20;99.90;;;;;;5163673;27;19904;-62
2022/03/30 04:30:55;;;;;;;;;;;8.20;99.90;;;;;;5143644;27;19911;-63
2022/03/30 04:33:20;;;;;;;;;;;8.20;99.90;;;;;;5171938;27;19911;-62
2022/03/30 04:35:46;;;;;;;;;;;8.20;99.90;;;;;;5146036;27;19921;-65
2022/03/30 04:38:11;;;;;;;;;;;8.20;99.90;;;;;;5145981;27;19899;-61
2022/03/30 04:40:37;;;;;;;;;;;8.20;99.90;;;;;;5160729;27;19900;-64
2022/03/30 04:43:03;;;;;;;;;;;8.20;99.90;;;;;;5143954;27;19907;-65
2022/03/30 04:45:28;;;;;;;;;;;8.10;99.90;;;;;;5164480;27;19903;-62
2022/03/30 04:47:54;;;;;;;;;;;8.10;99.90;;;;;;5167516;27;19904;-63
2022/03/30 04:50:20;;;;;;;;;;;8.00;99.90;;;;;;5166584;27;19903;-62
2022/03/30 04:52:46;;;;;;;;;;;8.10;99.90;;;;;;5170156;27;19974;-62
2022/03/30 04:55:12;;;;;;;;;;;8.10;99.90;;;;;;5165559;27;19927;-62
2022/03/30 04:57:38;;;;;;;;;;;8.10;99.90;;;;;;5168321;27;19903;-62
2022/03/30 05:00:05;;;;;;;;;;;8.10;99.90;;;;;;5161143;27;19932;-64
2022/03/30 05:02:33;;;;;;;;;;;8.10;99.90;;;;;;5148212;27;19927;-62
2022/03/30 05:04:58;;;;;;;;;;;8.00;99.90;;;;;;5173583;27;19907;-63
2022/03/30 05:07:24;;;;;;;;;;;7.90;99.90;;;;;;5155639;27;19928;-62
2022/03/30 05:09:50;;;;;;;;;;;7.90;99.90;;;;;;5161231;27;19919;-62
2022/03/30 05:12:15;;;;;;;;;;;8.00;99.90;;;;;;5163193;27;19938;-62
2022/03/30 05:14:41;;;;;;;;;;;7.90;99.90;;;;;;5157412;27;19937;-62
2022/03/30 05:17:08;;;;;;;;;;;8.00;99.90;;;;;;5180557;27;19903;-63
2022/03/30 05:19:34;;;;;;;;;;;8.00;99.90;;;;;;5138304;27;19916;-63
2022/03/30 05:21:59;;;;;;;;;;;8.00;99.90;;;;;;5154455;27;19903;-62
2022/03/30 05:24:25;;;;;;;;;;;8.00;99.90;;;;;;5163757;27;19900;-63
2022/03/30 05:26:53;;;;;;;;;;;7.90;99.90;;;;;;5145066;27;19912;-63
2022/03/30 05:29:18;;;;;;;;;;;7.90;99.90;;;;;;5170283;27;19942;-65
2022/03/30 05:31:45;;;;;;;;;;;7.90;99.90;;;;;;5161345;27;19911;-64
2022/03/30 05:34:11;;;;;;;;;;;7.90;99.90;;;;;;5149272;27;19903;-62
2022/03/30 05:36:37;;;;;;;;;;;7.80;99.90;;;;;;5163346;27;19904;-62
2022/03/30 05:39:03;;;;;;;;;;;7.80;99.90;;;;;;5161836;27;19903;-64
2022/03/30 05:41:29;;;;;;;;;;;7.80;99.90;;;;;;5162400;27;19911;-62
2022/03/30 05:43:54;;;;;;;;;;;7.90;99.90;;;;;;5158888;27;19911;-63
2022/03/30 05:46:20;;;;;;;;;;;7.90;99.90;;;;;;5160117;27;19967;-64
2022/03/30 05:48:49;;;;;;;;;;;7.90;99.90;;;;;;5154538;27;19959;-63
2022/03/30 05:51:14;;;;;;;;;;;7.90;99.90;;;;;;5166839;27;19922;-63
2022/03/30 05:53:40;;;;;;;;;;;7.90;99.90;;;;;;5160121;27;19899;-65
2022/03/30 05:56:05;;;;;;;;;;;7.80;99.90;;;;;;5148610;27;19922;-62
2022/03/30 05:58:31;;;;;;;;;;;7.90;99.90;;;;;;5160612;27;19904;-63
2022/03/30 06:00:57;;;;;;;;;;;7.90;99.90;;;;;;5147454;27;19904;-61
2022/03/30 06:03:22;;;;;;;;;;;7.90;99.90;;;;;;5163940;27;19922;-67
2022/03/30 06:05:48;;;;;;;;;;;7.90;99.90;;;;;;5164636;27;19986;-63
2022/03/30 06:08:13;;;;;;;;;;;8.00;99.90;;;;;;5175436;27;19907;-63
2022/03/30 06:10:39;;;;;;;;;;;8.10;99.90;;;;;;5147186;27;19943;-63
2022/03/30 06:13:05;;;;;;;;;;;8.20;99.90;;;;;;5141125;27;19966;-62
2022/03/30 06:15:31;;;;;;;;;;;8.20;99.90;;;;;;5159391;27;19927;-62
2022/03/30 06:17:57;;;;;;;;;;;8.20;99.90;;;;;;5166885;27;19929;-64
2022/03/30 06:20:24;;;;;;;;;;;8.20;99.90;;;;;;5158005;27;19908;-62
2022/03/30 06:22:51;;;;;;;;;;;8.30;99.90;;;;;;5165922;27;19930;-62
2022/03/30 06:25:17;;;;;;;;;;;8.40;99.90;;;;;;5160747;27;19918;-63
2022/03/30 06:27:43;;;;;;;;;;;8.40;99.90;;;;;;5159779;27;19912;-64
2022/03/30 06:30:09;;;;;;;;;;;8.30;99.90;;;;;;5156439;27;19918;-64
2022/03/30 06:32:35;;;;;;;;;;;8.50;99.90;;;;;;5161053;27;19931;-63
2022/03/30 06:35:01;;;;;;;;;;;8.50;99.90;;;;;;5158478;27;19971;-63
2022/03/30 06:37:27;;;;;;;;;;;8.10;99.90;;;;;;5159504;27;19910;-63
2022/03/30 06:39:52;;;;;;;;;;;8.30;99.90;;;;;;5157579;27;19903;-63
2022/03/30 06:42:18;;;;;;;;;;;8.20;99.90;;;;;;5146246;27;19904;-67
2022/03/30 06:44:44;;;;;;;;;;;8.20;99.90;;;;;;5157648;27;19979;-63
2022/03/30 06:47:09;;;;;;;;;;;8.30;99.90;;;;;;5158606;27;19911;-62
2022/03/30 06:49:36;;;;;;;;;;;8.40;99.90;;;;;;5139002;27;20059;-64
2022/03/30 06:52:03;;;;;;;;;;;8.50;99.90;;;;;;5151257;27;19987;-65
2022/03/30 06:54:29;;;;;;;;;;;8.50;99.90;;;;;;5162132;27;19900;-64
2022/03/30 06:56:55;;;;;;;;;;;8.40;99.90;;;;;;5157682;27;19923;-64
2022/03/30 06:59:20;;;;;;;;;;;8.60;99.90;;;;;;5143795;27;19912;-63
2022/03/30 07:01:46;;;;;;;;;;;8.60;99.90;;;;;;5138918;27;19911;-67
2022/03/30 07:04:12;;;;;;;;;;;8.40;99.90;;;;;;5158011;27;19903;-63
2022/03/30 07:10:14;;;;;;;;;;;8.40;99.90;;;;;;5160869;27;20024;-64
2022/03/30 07:12:07;;;;;;;;;;;8.60;99.90;;;;;;5162701;27;19922;-64
2022/03/30 07:14:33;;;;;;;;;;;8.60;99.90;;;;;;5147143;27;19903;-62
2022/03/30 07:16:58;;;;;;;;;;;8.70;99.90;;;;;;5143506;27;19922;-63
2022/03/30 07:19:24;;;;;;;;;;;8.60;99.90;;;;;;5161984;27;19904;-63
2022/03/30 07:21:53;;;;;;;;;;;8.70;99.90;;;;;;5158539;27;19938;-63
2022/03/30 07:24:18;;;;;;;;;;;8.70;99.90;;;;;;5161710;27;19911;-63
2022/03/30 07:26:44;;;;;;;;;;;8.70;99.90;;;;;;5168114;27;19903;-64
2022/03/30 07:29:10;;;;;;;;;;;8.80;99.90;;;;;;5160031;27;19904;-63
2022/03/30 07:31:35;;;;;;;;;;;8.80;99.90;;;;;;5161179;27;19926;-64
2022/03/30 07:34:01;;;;;;;;;;;8.90;99.90;;;;;;5156748;27;20242;-64
2022/03/30 07:36:26;;;;;;;;;;;9.00;99.90;;;;;;5164684;27;19910;-64
2022/03/30 07:38:52;;;;;;;;;;;9.00;99.90;;;;;;5165251;27;19966;-64
2022/03/30 07:41:18;;;;;;;;;;;9.10;99.90;;;;;;5157258;27;19899;-64
2022/03/30 07:43:45;;;;;;;;;;;9.10;99.90;;;;;;5159621;27;19914;-64
2022/03/30 07:46:12;;;;;;;;;;;9.10;99.90;;;;;;5160670;27;19923;-63
2022/03/30 07:48:38;;;;;;;;;;;8.90;99.90;;;;;;5162447;27;19955;-63
2022/03/30 07:51:04;;;;;;;;;;;8.80;99.90;;;;;;5168425;27;19912;-63
2022/03/30 07:53:30;;;;;;;;;;;8.60;99.90;;;;;;5166363;27;19935;-64
2022/03/30 07:55:55;;;;;;;;;;;8.40;99.90;;;;;;5162213;27;19929;-64
2022/03/30 07:58:21;;;;;;;;;;;8.40;99.90;;;;;;5165395;27;19986;-69
2022/03/30 08:00:47;;;;;;;;;;;8.30;99.90;;;;;;5165593;27;20034;-64
2022/03/30 08:03:13;;;;;;;;;;;8.50;99.90;;;;;;5162434;27;20709;-65
2022/03/30 08:05:39;;;;;;;;;;;8.50;99.90;;;;;;5146298;27;19923;-70
2022/03/30 08:08:06;;;;;;;;;;;8.40;99.90;;;;;;5166401;27;19911;-64
2022/03/30 08:10:33;;;;;;;;;;;8.50;99.90;;;;;;5166048;27;19934;-64
2022/03/30 08:12:59;;;;;;;;;;;8.60;99.90;;;;;;5165270;27;19932;-65
2022/03/30 08:15:25;;;;;;;;;;;8.70;99.90;;;;;;5148724;27;19982;-63
2022/03/30 08:17:51;;;;;;;;;;;8.80;99.90;;;;;;5165132;27;19914;-64
2022/03/30 08:22:25;;;;;;;;;;;8.80;99.90;;;;;;5161819;27;19943;-68
2022/03/30 08:23:09;;;;;;;;;;;8.80;99.90;;;;;;5165429;27;19931;-64
2022/03/30 08:25:35;;;;;;;;;;;8.90;99.90;;;;;;5169782;27;19906;-68
2022/03/30 08:28:01;;;;;;;;;;;9.00;99.90;;;;;;5165088;27;19945;-64
2022/03/30 08:30:26;;;;;;;;;;;9.30;99.90;;;;;;5166977;27;19924;-63
2022/03/30 08:32:52;;;;;;;;;;;9.50;99.90;;;;;;5167318;27;19918;-64
2022/03/30 08:35:18;;;;;;;;;;;9.50;99.90;;;;;;5165356;27;20865;-65
2022/03/30 08:37:43;;;;;;;;;;;9.50;99.90;;;;;;5164744;27;19903;-64
2022/03/30 08:40:09;;;;;;;;;;;9.60;99.90;;;;;;5160717;27;19922;-63
2022/03/30 08:42:36;;;;;;;;;;;9.70;99.90;;;;;;5160943;27;19963;-67
2022/03/30 08:45:05;;;;;;;;;;;9.90;99.90;;;;;;5165965;27;19903;-63
2022/03/30 08:47:32;;;;;;;;;;;10.00;99.90;;;;;;5164485;27;20192;-64
2022/03/30 08:49:57;;;;;;;;;;;10.20;99.90;;;;;;5163884;27;19980;-64
2022/03/30 08:52:23;;;;;;;;;;;10.20;99.90;;;;;;5155601;27;20040;-64
2022/03/30 08:54:52;;;;;;;;;;;10.20;99.90;;;;;;5162778;27;19924;-63
2022/03/30 08:57:19;;;;;;;;;;;10.40;99.90;;;;;;5143991;27;19966;-64
2022/03/30 09:00:03;;;;;;;;;;;10.40;99.90;;;;;;5167580;27;19912;-65
2022/03/30 09:02:33;;;;;;;;;;;10.40;99.90;;;;;;5146446;27;19912;-65
2022/03/30 09:05:18;;;;;;;;;;;10.30;99.90;;;;;;5149500;27;19903;-64
2022/03/30 09:07:48;;;;;;;;;;;10.30;99.90;;;;;;5149755;27;19958;-63
2022/03/30 09:10:22;;;;;;;;;;;10.10;99.90;;;;;;5147472;27;19980;-63
2022/03/30 09:12:49;;;;;;;;;;;10.00;99.90;;;;;;5162121;27;19915;-63
2022/03/30 09:15:15;;;;;;;;;;;10.00;99.90;;;;;;5165829;27;19903;-64
2022/03/30 09:17:41;;;;;;;;;;;9.80;99.90;;;;;;5161838;27;19910;-64
2022/03/30 09:20:12;;;;;;;;;;;9.60;99.90;;;;;;5148577;27;19899;-64
2022/03/30 09:22:41;;;;;;;;;;;9.70;99.90;;;;;;5162553;27;19908;-63
2022/03/30 09:25:08;;;;;;;;;;;9.70;99.90;;;;;;5168395;27;20317;-64
2022/03/30 09:27:34;;;;;;;;;;;9.80;99.90;;;;;;5166374;27;19928;-63
2022/03/30 09:30:01;;;;;;;;;;;9.90;99.90;;;;;;5166759;27;19911;-62
2022/03/30 09:32:27;;;;;;;;;;;9.90;99.90;;;;;;5159859;27;19912;-63
2022/03/30 09:34:54;;;;;;;;;;;10.00;99.90;;;;;;5165800;27;19915;-63
2022/03/30 09:37:19;;;;;;;;;;;10.10;99.90;;;;;;5167412;27;19911;-64
2022/03/30 09:39:45;;;;;;;;;;;10.30;99.90;;;;;;5170677;27;19929;-64
2022/03/30 09:42:12;;;;;;;;;;;10.40;99.90;;;;;;5162469;27;19946;-63
2022/03/30 09:45:04;;;;;;;;;;;10.50;99.90;;;;;;5144240;27;19941;-64
2022/03/30 09:47:35;;;;;;;;;;;10.60;99.90;;;;;;5141219;27;19938;-64
2022/03/30 09:50:06;;;;;;;;;;;10.50;99.90;;;;;;5160915;27;19915;-64
2022/03/30 09:52:33;;;;;;;;;;;10.40;99.90;;;;;;5166755;27;19958;-65
2022/03/30 09:54:59;;;;;;;;;;;10.30;99.90;;;;;;5162441;27;19899;-65
2022/03/30 09:57:34;;;;;;;;;;;10.00;99.90;;;;;;5148621;27;19979;-63
2022/03/30 10:00:00;;;;;;;;;;;9.70;99.90;;;;;;5162404;27;19955;-63
2022/03/30 10:02:26;;;;;;;;;;;9.80;99.90;;;;;;5160722;27;19904;-63
2022/03/30 10:04:52;;;;;;;;;;;9.80;99.90;;;;;;5142773;27;19919;-66
2022/03/30 10:07:19;;;;;;;;;;;9.70;99.90;;;;;;5142582;27;19911;-63
2022/03/30 10:09:44;;;;;;;;;;;9.50;99.90;;;;;;5147472;27;19925;-63
2022/03/30 10:12:12;;;;;;;;;;;9.50;99.90;;;;;;5161956;27;19971;-63
2022/03/30 10:14:39;;;;;;;;;;;9.60;99.90;;;;;;5163539;27;19975;-64
2022/03/30 10:17:04;;;;;;;;;;;9.80;99.90;;;;;;5169868;27;19903;-63
2022/03/30 10:19:30;;;;;;;;;;;9.90;99.90;;;;;;5151704;27;19911;-63
2022/03/30 10:21:58;;;;;;;;;;;10.10;99.90;;;;;;5165750;27;19918;-64
2022/03/30 10:25:03;;;;;;;;;;;10.30;99.90;;;;;;5146205;27;19903;-64
2022/03/30 10:27:44;;;;;;;;;;;10.50;99.90;;;;;;5162407;27;19904;-63
2022/03/30 10:30:11;;;;;;;;;;;10.70;99.90;;;;;;5158863;27;19991;-66
2022/03/30 10:32:38;;;;;;;;;;;10.90;99.90;;;;;;5165085;27;19914;-65
2022/03/30 10:35:04;;;;;;;;;;;10.80;99.90;;;;;;5170173;27;19975;-63
2022/03/30 10:37:34;;;;;;;;;;;10.70;99.90;;;;;;5161177;27;19945;-62
2022/03/30 10:40:03;;;;;;;;;;;10.80;99.90;;;;;;5155044;27;19903;-64
2022/03/30 10:42:47;;;;;;;;;;;11.00;99.90;;;;;;5161824;27;19911;-65
2022/03/30 10:45:30;;;;;;;;;;;11.30;99.90;;;;;;5143515;27;19904;-64
2022/03/30 10:48:07;;;;;;;;;;;11.20;99.90;;;;;;5160492;27;19903;-62
2022/03/30 10:50:34;;;;;;;;;;;11.00;99.90;;;;;;5162852;27;19908;-63
2022/03/30 10:52:59;;;;;;;;;;;11.00;99.90;;;;;;5167999;27;19926;-63
2022/03/30 10:55:25;;;;;;;;;;;11.10;99.90;;;;;;5160211;27;19943;-64
2022/03/30 10:57:58;;;;;;;;;;;11.30;99.90;;;;;;5142593;27;19908;-63
2022/03/30 11:00:25;;;;;;;;;;;11.40;99.90;;;;;;5165203;27;19911;-63
2022/03/30 11:02:51;;;;;;;;;;;11.50;99.90;;;;;;5174905;27;19903;-65
2022/03/30 11:05:24;;;;;;;;;;;11.50;99.90;;;;;;5163902;27;19939;-63
2022/03/30 11:07:50;;;;;;;;;;;11.40;99.90;;;;;;5147077;27;19944;-63
2022/03/30 11:10:16;;;;;;;;;;;11.40;99.90;;;;;;5161858;27;19899;-63
2022/03/30 11:13:12;;;;;;;;;;;11.30;99.90;;;;;;5157578;27;19947;-65
2022/03/30 11:15:56;;;;;;;;;;;11.30;99.90;;;;;;5150734;27;20171;-64
2022/03/30 11:18:22;;;;;;;;;;;11.10;99.90;;;;;;5157528;27;19963;-62
2022/03/30 11:21:06;;;;;;;;;;;10.80;99.90;;;;;;5159820;27;19904;-66
2022/03/30 11:23:32;;;;;;;;;;;10.90;99.90;;;;;;5161105;27;19899;-61
2022/03/30 11:25:57;;;;;;;;;;;11.10;99.90;;;;;;5166897;27;19911;-63
2022/03/30 11:28:36;;;;;;;;;;;11.20;99.90;;;;;;5157307;27;19899;-66
2022/03/30 11:31:04;;;;;;;;;;;11.30;99.90;;;;;;5159544;27;20063;-63
2022/03/30 11:33:35;;;;;;;;;;;11.50;99.90;;;;;;5164977;27;20252;-64
2022/03/30 11:36:03;;;;;;;;;;;11.50;99.90;;;;;;5151770;27;19955;-63
2022/03/30 11:38:40;;;;;;;;;;;11.40;99.90;;;;;;5157681;27;19907;-63
2022/03/30 11:41:10;;;;;;;;;;;11.30;99.90;;;;;;5160178;27;19903;-65
2022/03/30 11:46:25;;;;;;;;;;;11.60;99.90;;;;;;5158123;27;19922;-64
2022/03/30 11:48:51;;;;;;;;;;;11.70;99.90;;;;;;5163494;27;19967;-63
2022/03/30 11:51:17;;;;;;;;;;;11.80;99.90;;;;;;5162133;27;20033;-65
2022/03/30 11:53:42;;;;;;;;;;;12.00;99.90;;;;;;5157767;27;19942;-63
2022/03/30 11:56:09;;;;;;;;;;;12.10;99.90;;;;;;5156540;27;19910;-65
2022/03/30 11:58:39;;;;;;;;;;;12.00;99.90;;;;;;5160734;27;19949;-64
2022/03/30 12:01:09;;;;;;;;;;;11.70;99.90;;;;;;5159018;27;19955;-65
2022/03/30 12:03:35;;;;;;;;;;;11.90;99.90;;;;;;5157758;27;19927;-64
2022/03/30 12:06:03;;;;;;;;;;;11.80;99.90;;;;;;5157100;27;19975;-63
2022/03/30 12:08:38;;;;;;;;;;;11.70;99.90;;;;;;5140345;27;19925;-64
2022/03/30 12:11:04;;;;;;;;;;;11.50;99.90;;;;;;5157220;27;19915;-63
2022/03/30 12:13:30;;;;;;;;;;;11.40;99.90;;;;;;5165647;27;19903;-65
2022/03/30 12:16:04;;;;;;;;;;;11.60;99.90;;;;;;5173767;27;19900;-64
2022/03/30 12:18:30;;;;;;;;;;;11.80;99.90;;;;;;5139814;27;19931;-65
2022/03/30 12:21:01;;;;;;;;;;;11.90;99.90;;;;;;5146454;27;19994;-65
2022/03/30 12:23:27;;;;;;;;;;;12.10;99.90;;;;;;5156413;27;19942;-64
2022/03/30 12:25:53;;;;;;;;;;;12.30;99.90;;;;;;5163553;27;19919;-62
2022/03/30 12:28:29;;;;;;;;;;;12.40;99.90;;;;;;5157425;27;19918;-64
2022/03/30 12:30:55;;;;;;;;;;;12.60;99.90;;;;;;5162703;27;19904;-63
2022/03/30 12:33:20;;;;;;;;;;;12.80;99.90;;;;;;5150960;27;19913;-63
2022/03/30 12:35:46;;;;;;;;;;;13.00;99.90;;;;;;5171050;27;19904;-63
2022/03/30 12:38:13;;;;;;;;;;;13.00;99.90;;;;;;5164798;27;19926;-65
2022/03/30 12:40:39;;;;;;;;;;;13.10;99.90;;;;;;5146045;27;19942;-63
2022/03/30 12:43:06;;;;;;;;;;;12.80;99.90;;;;;;5166410;27;19929;-64
2022/03/30 12:45:32;;;;;;;;;;;12.60;99.90;;;;;;5160511;27;19949;-64
2022/03/30 12:48:02;;;;;;;;;;;12.40;99.90;;;;;;5141190;27;19912;-64
2022/03/30 12:50:31;;;;;;;;;;;12.20;99.90;;;;;;5165481;27;19904;-64
2022/03/30 12:53:02;;;;;;;;;;;12.40;99.90;;;;;;5164593;27;19928;-64
2022/03/30 12:55:30;;;;;;;;;;;12.50;99.90;;;;;;5149665;27;19903;-64
2022/03/30 12:58:02;;;;;;;;;;;12.60;99.90;;;;;;5162733;27;19909;-65
2022/03/30 13:00:38;;;;;;;;;;;12.80;99.90;;;;;;5162781;27;19919;-66
2022/03/30 13:03:09;;;;;;;;;;;12.90;99.90;;;;;;5164345;27;19903;-62
2022/03/30 13:05:34;;;;;;;;;;;12.80;99.90;;;;;;5163781;27;19939;-62
2022/03/30 13:08:07;;;;;;;;;;;12.90;99.90;;;;;;5144258;27;19915;-64
2022/03/30 13:10:45;;;;;;;;;;;12.90;99.90;;;;;;5149514;27;19906;-65
2022/03/30 13:13:10;;;;;;;;;;;13.00;99.90;;;;;;5164154;27;19912;-64
2022/03/30 13:15:36;;;;;;;;;;;13.00;99.90;;;;;;5179603;27;19903;-63
2022/03/30 13:18:03;;;;;;;;;;;13.10;99.90;;;;;;5172198;27;19963;-63
2022/03/30 13:20:30;;;;;;;;;;;13.20;99.90;;;;;;5165554;27;19903;-64
2022/03/30 13:23:15;;;;;;;;;;;13.00;99.90;;;;;;5166564;27;19953;-63
2022/03/30 13:25:42;;;;;;;;;;;13.00;99.90;;;;;;5156462;27;19928;-63
2022/03/30 13:28:19;;;;;;;;;;;13.10;99.90;;;;;;5154663;27;19958;-64
2022/03/30 13:30:45;;;;;;;;;;;13.50;99.90;;;;;;5162810;27;19903;-65
2022/03/30 13:33:12;;;;;;;;;;;13.50;99.90;;;;;;5161419;27;19904;-63
2022/03/30 13:35:38;;;;;;;;;;;13.50;99.90;;;;;;5168945;27;19910;-63
2022/03/30 13:38:03;;;;;;;;;;;13.10;99.90;;;;;;5165006;27;19926;-65
2022/03/30 13:40:29;;;;;;;;;;;13.20;99.90;;;;;;5165402;27;19903;-64
2022/03/30 13:42:55;;;;;;;;;;;13.10;99.90;;;;;;5162224;27;19990;-64
2022/03/30 13:45:21;;;;;;;;;;;13.00;99.90;;;;;;5147316;27;20086;-63
2022/03/30 13:47:46;;;;;;;;;;;13.10;99.90;;;;;;5154135;27;19937;-64
2022/03/30 13:50:13;;;;;;;;;;;13.30;99.90;;;;;;5162535;27;19911;-63
2022/03/30 13:52:38;;;;;;;;;;;13.10;99.90;;;;;;5165707;27;19918;-65
2022/03/30 13:55:05;;;;;;;;;;;13.00;99.90;;;;;;5166529;27;19903;-62
2022/03/30 13:57:30;;;;;;;;;;;13.00;99.90;;;;;;5143392;27;19920;-64
2022/03/30 13:59:56;;;;;;;;;;;13.00;99.90;;;;;;5161379;27;19975;-67
2022/03/30 14:02:21;;;;;;;;;;;13.10;99.90;;;;;;5163550;27;19938;-64
2022/03/30 14:04:47;;;;;;;;;;;13.20;99.90;;;;;;5165310;27;19928;-63
2022/03/30 14:07:13;;;;;;;;;;;13.10;99.90;;;;;;5169636;27;19911;-63
2022/03/30 14:09:39;;;;;;;;;;;13.10;99.90;;;;;;5161940;27;19920;-64
2022/03/30 14:12:05;;;;;;;;;;;13.30;99.90;;;;;;5157769;27;19995;-63
2022/03/30 14:14:31;;;;;;;;;;;13.40;99.90;;;;;;5171014;27;19910;-63
2022/03/30 14:16:58;;;;;;;;;;;13.40;99.90;;;;;;5167501;27;19903;-64
2022/03/30 14:19:24;;;;;;;;;;;13.30;99.90;;;;;;5156459;27;19928;-63
2022/03/30 14:21:49;;;;;;;;;;;13.20;99.90;;;;;;5165049;27;19934;-63
2022/03/30 14:24:15;;;;;;;;;;;13.20;99.90;;;;;;5153406;27;19966;-64
2022/03/30 14:26:41;;;;;;;;;;;13.30;99.90;;;;;;5143521;27;19900;-64
2022/03/30 14:29:07;;;;;;;;;;;13.40;99.90;;;;;;5167613;27;19904;-64
2022/03/30 14:31:37;;;;;;;;;;;13.60;99.90;;;;;;5162095;27;19934;-63
2022/03/30 14:34:03;;;;;;;;;;;13.70;99.90;;;;;;5150163;27;19934;-64